Time;durP1;ratioP1;P1;durP2;ratioP2;P2;SDS_P1;SDS_P2;PMS_P1;PMS_P2;Temp;Humidity;BMP_temperature;BMP_pressure;BME280_temperature;BME280_humidity;BME280_pressure;Samples;Min_cycle;Max_cycle;Signal;HPM_P1;HPM_P2
2021/10/10 00:01:08;;;;;;;2.27;2.17;;;;;;;7.79;100.00;94988.91;828186;71;29579;-75
2021/10/10 00:16:09;;;;;;;2.12;2.02;;;;;;;7.86;100.00;94977.67;834832;71;30718;-76
2021/10/10 00:31:10;;;;;;;2.00;1.90;;;;;;;8.00;100.00;94966.20;834798;71;29748;-78
2021/10/10 00:46:08;;;;;;;2.05;1.95;;;;;;;8.09;100.00;94961.24;829587;71;29710;-78
2021/10/10 01:01:08;;;;;;;1.80;1.80;;;;;;;8.18;100.00;94957.08;834704;71;29788;-75
2021/10/10 01:16:08;;;;;;;2.00;1.90;;;;;;;8.26;100.00;94941.41;828218;71;29714;-74
2021/10/10 01:31:27;;;;;;;2.05;1.90;;;;;;;8.32;100.00;94941.67;828653;71;33223;-79
2021/10/10 01:46:11;;;;;;;1.62;1.60;;;;;;;8.32;100.00;94945.06;827895;71;30838;-76
2021/10/10 02:01:15;;;;;;;2.00;1.90;;;;;;;8.37;100.00;94952.92;827319;71;33183;-75
2021/10/10 02:16:14;;;;;;;1.90;1.80;;;;;;;8.44;100.00;94965.75;828707;71;32563;-77
2021/10/10 02:31:14;;;;;;;2.10;1.85;;;;;;;8.51;100.00;94957.10;827281;71;33132;-76
2021/10/10 02:46:08;;;;;;;2.15;2.05;;;;;;;8.51;100.00;94953.18;828054;71;30102;-76
2021/10/10 03:16:08;;;;;;;2.45;2.25;;;;;;;8.58;98.88;94952.94;828199;71;29579;-76
2021/10/10 03:31:14;;;;;;;2.47;2.37;;;;;;;8.62;98.17;94948.22;826815;71;32645;-77
2021/10/10 03:46:07;;;;;;;2.90;2.80;;;;;;;;;;828217;71;29244;-79
2021/10/10 04:01:07;;;;;;;2.10;2.00;;;;;;;;;;828122;71;29243;-77
2021/10/10 04:16:14;;;;;;;2.40;2.30;;;;;;;8.47;100.00;94935.67;827405;71;33117;-75
2021/10/10 04:31:08;;;;;;;2.40;2.30;;;;;;;8.43;100.00;94947.17;828055;71;29400;-77
2021/10/10 04:46:08;;;;;;;1.90;1.80;;;;;;;8.42;100.00;94956.08;828149;71;29771;-79
2021/10/10 05:01:16;;;;;;;1.80;1.70;;;;;;;8.40;100.00;94943.23;833938;71;32742;-76
2021/10/10 05:16:09;;;;;;;1.90;1.80;;;;;;;8.37;100.00;94950.30;828326;71;29728;-77
2021/10/10 05:31:14;;;;;;;2.10;2.00;;;;;;;8.36;100.00;94962.33;828371;71;32652;-79
2021/10/10 05:46:08;;;;;;;2.25;1.70;;;;;;;8.32;100.00;94962.05;828161;71;29658;-76
2021/10/10 06:01:14;;;;;;;2.37;2.22;;;;;;;8.30;100.00;94966.77;827281;71;33206;-75
2021/10/10 06:16:10;;;;;;;2.72;2.52;;;;;;;8.36;100.00;94972.25;827845;71;30360;-75
2021/10/10 06:31:15;;;;;;;3.20;2.65;;;;;;;8.37;100.00;94967.30;825971;71;32735;-73
2021/10/10 06:46:15;;;;;;;3.65;2.77;;;;;;;8.45;100.00;94959.99;827383;71;32705;-74
2021/10/10 07:01:14;;;;;;;3.37;3.10;;;;;;;8.53;100.00;94979.08;828010;71;30234;-76
2021/10/10 07:16:09;;;;;;;4.97;4.58;;;;;;;8.54;100.00;94990.59;833876;71;29772;-78
2021/10/10 07:31:09;;;;;;;6.15;5.08;;;;;;;8.56;100.00;94983.80;829140;71;30609;-76
2021/10/10 07:46:21;;;;;;;11.93;5.70;;;;;;;8.65;100.00;95009.67;827420;71;32740;-75
2021/10/10 08:01:15;;;;;;;5.75;5.25;;;;;;;8.71;100.00;95022.23;833870;71;32666;-75
2021/10/10 08:16:13;;;;;;;6.20;4.85;;;;;;;;;;827420;71;32733;-79
2021/10/10 08:31:12;;;;;;;5.62;5.08;;;;;;;8.79;100.00;95040.80;827954;71;31742;-77
2021/10/10 08:46:12;;;;;;;5.45;4.95;;;;;;;8.72;100.00;95014.64;828828;71;30220;-77
2021/10/10 09:16:14;;;;;;;5.40;5.00;;;;;;;8.89;100.00;94992.14;827733;71;32763;-74
2021/10/10 09:31:15;;;;;;;4.45;4.10;;;;;;;9.01;99.98;94984.79;826984;71;32626;-74
2021/10/10 09:46:11;;;;;;;5.05;4.50;;;;;;;9.14;99.87;94982.13;828156;71;29772;-75
2021/10/10 10:01:19;;;;;;;5.30;4.90;;;;;;;9.22;99.25;94990.25;827849;71;32694;-74
2021/10/10 10:16:16;;;;;;;8.73;7.83;;;;;;;9.23;99.23;94976.09;833807;71;33113;-75
2021/10/10 10:31:08;;;;;;;5.95;5.30;;;;;;;9.19;98.83;94969.82;828009;71;29513;-77
2021/10/10 10:46:14;;;;;;;5.00;4.60;;;;;;;9.21;97.88;94982.66;833790;71;33061;-76
2021/10/10 11:01:14;;;;;;;3.65;3.45;;;;;;;9.25;96.92;94961.43;827492;71;32650;-77
2021/10/10 11:16:23;;;;;;;3.85;3.55;;;;;;;9.31;96.91;94954.34;828099;71;30223;-75
2021/10/10 11:31:20;;;;;;;3.50;3.20;;;;;;;9.30;97.20;94931.81;829215;71;32982;-75
2021/10/10 11:46:09;;;;;;;5.28;3.50;;;;;;;9.29;98.10;94939.43;828231;71;30749;-75
2021/10/10 12:01:14;;;;;;;3.25;3.05;;;;;;;9.21;98.82;94935.52;827618;71;32666;-76
2021/10/10 12:16:11;;;;;;;3.58;3.27;;;;;;;9.14;99.37;94935.01;828440;71;30220;-77
2021/10/10 12:46:10;;;;;;;3.95;3.22;;;;;;;8.94;100.00;94919.64;828149;71;31130;-78
2021/10/10 13:01:08;;;;;;;3.62;3.40;;;;;;;8.91;100.00;94918.08;828293;71;29695;-75
2021/10/10 13:16:08;;;;;;;4.12;3.83;;;;;;;8.92;100.00;94911.28;821594;71;29774;-77
2021/10/10 13:31:15;;;;;;;4.50;4.10;;;;;;;8.92;100.00;94915.20;812151;70;32808;-76
2021/10/10 13:46:10;;;;;;;3.98;3.67;;;;;;;8.84;100.00;94902.67;829044;71;29666;-76
2021/10/10 14:01:14;;;;;;;4.97;4.58;;;;;;;;;;827129;71;32669;-76
2021/10/10 14:16:09;;;;;;;6.03;4.35;;;;;;;-0.41;100.00;93489.90;828035;71;30295;-74
2021/10/10 14:31:59;;;;;;;5.67;4.62;;;;;;;8.74;100.00;94849.84;822859;70;32827;-76
2021/10/10 14:46:29;;;;;;;6.45;4.95;;;;;;;8.72;100.00;94858.98;824396;71;33174;-76
2021/10/10 15:16:08;;;;;;;5.65;5.10;;;;;;;8.86;100.00;94847.43;827817;71;30005;-75
2021/10/10 15:31:38;;;;;;;5.62;5.10;;;;;;;8.87;100.00;94838.55;824991;71;32719;-74
2021/10/10 15:46:07;;;;;;;5.12;4.62;;;;;;;;;;828070;71;30167;-77
2021/10/10 16:01:11;;;;;;;5.20;4.80;;;;;;;8.93;100.00;94820.46;814615;70;30904;-76
2021/10/10 16:16:09;;;;;;;4.45;4.03;;;;;;;9.02;99.65;94825.37;834386;71;30731;-78
2021/10/10 16:31:13;;;;;;;6.25;5.40;;;;;;;;;;826882;71;32749;-77
2021/10/10 16:46:10;;;;;;;8.40;6.05;;;;;;;9.11;100.00;94846.56;828229;71;30247;-77
2021/10/10 17:01:16;;;;;;;6.65;5.75;;;;;;;9.01;100.00;161027.38;833649;71;32723;-78
2021/10/10 17:16:09;;;;;;;5.83;5.25;;;;;;;8.97;100.00;161173.63;833956;71;30269;-77
2021/10/10 17:31:08;;;;;;;6.05;5.42;;;;;;;8.83;100.00;94838.29;827690;71;29772;-76
2021/10/10 17:46:08;;;;;;;7.40;6.70;;;;;;;;;;828463;71;29683;-76
2021/10/10 18:16:28;;;;;;;6.75;5.35;;;;;;;8.84;100.00;94816.32;829091;71;32696;-80
2021/10/10 18:31:15;;;;;;;5.33;4.83;;;;;;;8.85;100.00;94832.80;832170;71;32735;-81
2021/10/10 18:46:09;;;;;;;5.45;4.95;;;;;;;8.59;100.00;94791.80;794537;74;29513;-80
2021/10/10 19:01:15;;;;;;;4.55;4.15;;;;;;;8.94;100.00;94810.23;820269;71;33151;-79
2021/10/10 19:16:08;;;;;;;4.05;3.75;;;;;;;8.95;100.00;94804.74;834210;71;27988;-79
2021/10/10 19:31:15;;;;;;;3.35;3.15;;;;;;;9.07;100.00;94797.88;828279;71;32311;-79
2021/10/10 19:46:10;;;;;;;3.33;3.02;;;;;;;9.21;100.00;94791.53;828519;71;28719;-77
2021/10/10 20:01:10;;;;;;;2.98;2.77;;;;;;;9.25;100.00;94797.78;828405;71;29284;-79
2021/10/10 20:16:16;;;;;;;2.80;2.55;;;;;;;9.26;100.00;94815.05;827626;71;32601;-77
2021/10/10 20:31:09;;;;;;;3.30;3.10;;;;;;;9.28;100.00;94792.53;828169;71;29167;-79
2021/10/10 20:46:10;;;;;;;4.22;3.92;;;;;;;9.22;100.00;94793.88;828250;71;28849;-77
2021/10/10 21:16:14;;;;;;;3.10;2.90;;;;;;;9.28;100.00;94778.13;828308;71;31698;-77
2021/10/10 21:31:16;;;;;;;3.58;3.35;;;;;;;9.35;98.15;94751.89;827932;71;29349;-76
2021/10/10 21:46:15;;;;;;;3.35;3.15;;;;;;;9.37;99.02;94743.77;833986;71;31765;-78
2021/10/10 22:01:18;;;;;;;3.65;3.35;;;;;;;9.32;99.29;94706.61;827675;71;31738;-78
2021/10/10 22:16:17;;;;;;;3.90;3.60;;;;;;;9.29;99.14;94669.73;827543;71;31711;-76
2021/10/10 22:31:16;;;;;;;4.00;3.70;;;;;;;9.25;99.06;94673.42;826850;71;32189;-79
2021/10/10 22:46:14;;;;;;;3.45;3.25;;;;;;;9.22;98.82;94660.87;833969;71;32193;-78
2021/10/10 23:01:14;;;;;;;4.90;4.17;;;;;;;9.26;97.51;94629.69;835608;71;31754;-78
2021/10/10 23:16:09;;;;;;;4.47;4.17;;;;;;;9.30;96.16;94637.25;829726;71;30084;-79
2021/10/10 23:31:09;;;;;;;5.40;4.90;;;;;;;9.29;96.25;94617.38;829567;71;29988;-77
2021/10/10 23:46:18;;;;;;;5.58;5.05;;;;;;;9.27;96.70;94613.71;827689;71;33133;-76
